sensor_id;sensor_type;location;lat;lon;timestamp;P1;durP1;ratioP1;P2;durP2;ratioP2
49422;SDS011;36998;51.974;20.150;2022-07-29T00:01:24;12.95;;;4.40;;
49422;SDS011;36998;51.974;20.150;2022-07-29T00:03:50;10.13;;;4.15;;
49422;SDS011;36998;51.974;20.150;2022-07-29T00:06:15;13.07;;;4.20;;
49422;SDS011;36998;51.974;20.150;2022-07-29T00:08:41;9.73;;;4.18;;
49422;SDS011;36998;51.974;20.150;2022-07-29T00:11:07;11.02;;;3.97;;
49422;SDS011;36998;51.974;20.150;2022-07-29T00:13:32;8.55;;;4.55;;
49422;SDS011;36998;51.974;20.150;2022-07-29T00:16:24;13.07;;;4.32;;
49422;SDS011;36998;51.974;20.150;2022-07-29T00:18:49;16.25;;;3.53;;
49422;SDS011;36998;51.974;20.150;2022-07-29T00:21:15;15.95;;;4.38;;
49422;SDS011;36998;51.974;20.150;2022-07-29T00:23:40;12.82;;;4.10;;
49422;SDS011;36998;51.974;20.150;2022-07-29T00:26:14;14.23;;;5.00;;
49422;SDS011;36998;51.974;20.150;2022-07-29T00:28:40;10.13;;;4.60;;
49422;SDS011;36998;51.974;20.150;2022-07-29T00:31:05;7.35;;;4.30;;
49422;SDS011;36998;51.974;20.150;2022-07-29T00:33:31;14.90;;;4.15;;
49422;SDS011;36998;51.974;20.150;2022-07-29T00:35:56;15.05;;;4.30;;
49422;SDS011;36998;51.974;20.150;2022-07-29T00:38:22;15.85;;;4.50;;
49422;SDS011;36998;51.974;20.150;2022-07-29T00:40:47;12.52;;;4.30;;
49422;SDS011;36998;51.974;20.150;2022-07-29T00:43:13;17.15;;;4.70;;
49422;SDS011;36998;51.974;20.150;2022-07-29T00:45:40;15.93;;;4.65;;
49422;SDS011;36998;51.974;20.150;2022-07-29T00:48:06;15.75;;;4.05;;
49422;SDS011;36998;51.974;20.150;2022-07-29T00:50:33;13.95;;;4.88;;
49422;SDS011;36998;51.974;20.150;2022-07-29T00:53:00;10.75;;;4.68;;
49422;SDS011;36998;51.974;20.150;2022-07-29T00:55:27;15.02;;;4.82;;
49422;SDS011;36998;51.974;20.150;2022-07-29T00:57:54;11.15;;;4.18;;
49422;SDS011;36998;51.974;20.150;2022-07-29T01:00:24;22.38;;;4.57;;
49422;SDS011;36998;51.974;20.150;2022-07-29T01:02:52;10.15;;;3.85;;
49422;SDS011;36998;51.974;20.150;2022-07-29T01:05:18;21.60;;;4.38;;
49422;SDS011;36998;51.974;20.150;2022-07-29T01:07:46;14.02;;;4.00;;
49422;SDS011;36998;51.974;20.150;2022-07-29T01:10:14;12.57;;;4.93;;
49422;SDS011;36998;51.974;20.150;2022-07-29T01:12:41;16.05;;;4.90;;
49422;SDS011;36998;51.974;20.150;2022-07-29T01:15:09;11.48;;;4.32;;
49422;SDS011;36998;51.974;20.150;2022-07-29T01:17:36;13.38;;;4.30;;
49422;SDS011;36998;51.974;20.150;2022-07-29T01:26:03;21.23;;;5.13;;
49422;SDS011;36998;51.974;20.150;2022-07-29T01:31:58;14.57;;;4.35;;
49422;SDS011;36998;51.974;20.150;2022-07-29T01:34:40;19.90;;;4.80;;
49422;SDS011;36998;51.974;20.150;2022-07-29T01:37:21;16.52;;;5.03;;
49422;SDS011;36998;51.974;20.150;2022-07-29T01:39:52;10.52;;;3.97;;
49422;SDS011;36998;51.974;20.150;2022-07-29T01:42:23;14.17;;;4.83;;
49422;SDS011;36998;51.974;20.150;2022-07-29T01:44:56;14.07;;;4.63;;
49422;SDS011;36998;51.974;20.150;2022-07-29T01:47:33;11.68;;;4.13;;
49422;SDS011;36998;51.974;20.150;2022-07-29T01:50:05;12.23;;;5.47;;
49422;SDS011;36998;51.974;20.150;2022-07-29T01:52:34;15.52;;;5.18;;
49422;SDS011;36998;51.974;20.150;2022-07-29T01:55:10;15.63;;;4.90;;
49422;SDS011;36998;51.974;20.150;2022-07-29T01:57:38;12.70;;;6.00;;
49422;SDS011;36998;51.974;20.150;2022-07-29T02:00:07;10.00;;;5.63;;
49422;SDS011;36998;51.974;20.150;2022-07-29T02:02:43;19.58;;;6.10;;
49422;SDS011;36998;51.974;20.150;2022-07-29T02:05:12;16.35;;;6.20;;
49422;SDS011;36998;51.974;20.150;2022-07-29T02:07:40;15.20;;;5.97;;
49422;SDS011;36998;51.974;20.150;2022-07-29T02:10:08;20.98;;;5.97;;
49422;SDS011;36998;51.974;20.150;2022-07-29T02:12:36;20.52;;;6.28;;
49422;SDS011;36998;51.974;20.150;2022-07-29T02:15:04;16.17;;;5.65;;
49422;SDS011;36998;51.974;20.150;2022-07-29T02:17:51;16.48;;;5.88;;
49422;SDS011;36998;51.974;20.150;2022-07-29T02:20:25;14.85;;;6.50;;
49422;SDS011;36998;51.974;20.150;2022-07-29T02:22:52;18.58;;;6.32;;
49422;SDS011;36998;51.974;20.150;2022-07-29T02:25:20;16.60;;;6.20;;
49422;SDS011;36998;51.974;20.150;2022-07-29T02:27:47;15.65;;;6.47;;
49422;SDS011;36998;51.974;20.150;2022-07-29T02:30:15;18.17;;;6.93;;
49422;SDS011;36998;51.974;20.150;2022-07-29T02:32:42;20.98;;;6.85;;
49422;SDS011;36998;51.974;20.150;2022-07-29T02:35:10;18.20;;;6.72;;
49422;SDS011;36998;51.974;20.150;2022-07-29T02:37:39;15.93;;;6.65;;
49422;SDS011;36998;51.974;20.150;2022-07-29T02:40:08;14.07;;;7.15;;
49422;SDS011;36998;51.974;20.150;2022-07-29T02:42:41;14.80;;;7.45;;
49422;SDS011;36998;51.974;20.150;2022-07-29T02:45:09;20.33;;;7.68;;
49422;SDS011;36998;51.974;20.150;2022-07-29T02:47:42;17.80;;;7.32;;
49422;SDS011;36998;51.974;20.150;2022-07-29T02:50:38;11.85;;;6.78;;
49422;SDS011;36998;51.974;20.150;2022-07-29T02:53:14;15.50;;;6.32;;
49422;SDS011;36998;51.974;20.150;2022-07-29T02:55:47;15.40;;;6.50;;
49422;SDS011;36998;51.974;20.150;2022-07-29T02:58:32;15.50;;;6.70;;
49422;SDS011;36998;51.974;20.150;2022-07-29T03:01:00;12.52;;;6.47;;
49422;SDS011;36998;51.974;20.150;2022-07-29T03:03:29;12.05;;;5.97;;
49422;SDS011;36998;51.974;20.150;2022-07-29T03:05:57;14.95;;;6.50;;
49422;SDS011;36998;51.974;20.150;2022-07-29T03:08:26;14.27;;;6.13;;
49422;SDS011;36998;51.974;20.150;2022-07-29T03:10:53;13.85;;;6.40;;
49422;SDS011;36998;51.974;20.150;2022-07-29T03:13:20;14.90;;;6.95;;
49422;SDS011;36998;51.974;20.150;2022-07-29T03:15:46;15.05;;;6.40;;
49422;SDS011;36998;51.974;20.150;2022-07-29T03:18:12;20.27;;;6.15;;
49422;SDS011;36998;51.974;20.150;2022-07-29T03:20:39;14.10;;;6.38;;
49422;SDS011;36998;51.974;20.150;2022-07-29T03:23:05;13.57;;;5.80;;
49422;SDS011;36998;51.974;20.150;2022-07-29T03:25:32;17.75;;;6.07;;
49422;SDS011;36998;51.974;20.150;2022-07-29T03:27:58;15.18;;;6.32;;
49422;SDS011;36998;51.974;20.150;2022-07-29T03:30:27;12.63;;;5.85;;
49422;SDS011;36998;51.974;20.150;2022-07-29T03:32:56;16.38;;;5.75;;
49422;SDS011;36998;51.974;20.150;2022-07-29T03:35:22;13.88;;;5.57;;
49422;SDS011;36998;51.974;20.150;2022-07-29T03:37:48;13.93;;;6.07;;
49422;SDS011;36998;51.974;20.150;2022-07-29T03:40:14;10.60;;;5.18;;
49422;SDS011;36998;51.974;20.150;2022-07-29T03:42:44;12.35;;;4.97;;
49422;SDS011;36998;51.974;20.150;2022-07-29T03:45:12;9.48;;;5.40;;
49422;SDS011;36998;51.974;20.150;2022-07-29T03:47:42;12.45;;;5.38;;
49422;SDS011;36998;51.974;20.150;2022-07-29T03:50:12;19.25;;;5.43;;
49422;SDS011;36998;51.974;20.150;2022-07-29T03:52:40;10.13;;;4.88;;
49422;SDS011;36998;51.974;20.150;2022-07-29T03:55:06;9.00;;;4.20;;
49422;SDS011;36998;51.974;20.150;2022-07-29T03:57:33;12.88;;;5.13;;
49422;SDS011;36998;51.974;20.150;2022-07-29T04:00:00;20.38;;;5.43;;
49422;SDS011;36998;51.974;20.150;2022-07-29T04:02:35;9.20;;;5.07;;
49422;SDS011;36998;51.974;20.150;2022-07-29T04:05:03;12.15;;;4.38;;
49422;SDS011;36998;51.974;20.150;2022-07-29T04:07:28;16.98;;;4.65;;
49422;SDS011;36998;51.974;20.150;2022-07-29T04:09:55;16.27;;;5.38;;
49422;SDS011;36998;51.974;20.150;2022-07-29T04:12:20;21.70;;;4.75;;
49422;SDS011;36998;51.974;20.150;2022-07-29T04:14:46;12.70;;;4.88;;
49422;SDS011;36998;51.974;20.150;2022-07-29T04:17:11;15.98;;;6.47;;
49422;SDS011;36998;51.974;20.150;2022-07-29T04:19:37;12.80;;;5.32;;
49422;SDS011;36998;51.974;20.150;2022-07-29T04:22:02;11.82;;;4.78;;
49422;SDS011;36998;51.974;20.150;2022-07-29T04:24:28;17.88;;;5.32;;
49422;SDS011;36998;51.974;20.150;2022-07-29T04:26:53;16.35;;;4.57;;
49422;SDS011;36998;51.974;20.150;2022-07-29T04:29:19;17.02;;;4.68;;
49422;SDS011;36998;51.974;20.150;2022-07-29T04:31:45;12.27;;;4.13;;
49422;SDS011;36998;51.974;20.150;2022-07-29T04:34:11;12.30;;;4.32;;
49422;SDS011;36998;51.974;20.150;2022-07-29T04:36:37;7.22;;;3.90;;
49422;SDS011;36998;51.974;20.150;2022-07-29T04:39:02;11.57;;;4.60;;
49422;SDS011;36998;51.974;20.150;2022-07-29T04:41:28;18.15;;;3.90;;
49422;SDS011;36998;51.974;20.150;2022-07-29T04:43:54;10.55;;;4.72;;
49422;SDS011;36998;51.974;20.150;2022-07-29T04:46:20;12.02;;;4.93;;
49422;SDS011;36998;51.974;20.150;2022-07-29T04:48:46;15.38;;;4.70;;
49422;SDS011;36998;51.974;20.150;2022-07-29T04:51:12;11.20;;;4.57;;
49422;SDS011;36998;51.974;20.150;2022-07-29T04:53:38;12.10;;;4.20;;
49422;SDS011;36998;51.974;20.150;2022-07-29T04:56:04;15.25;;;4.38;;
49422;SDS011;36998;51.974;20.150;2022-07-29T04:58:30;9.52;;;3.72;;
49422;SDS011;36998;51.974;20.150;2022-07-29T05:00:59;22.37;;;4.03;;
49422;SDS011;36998;51.974;20.150;2022-07-29T05:03:39;21.30;;;4.03;;
49422;SDS011;36998;51.974;20.150;2022-07-29T05:06:05;7.03;;;3.53;;
49422;SDS011;36998;51.974;20.150;2022-07-29T05:08:48;14.88;;;3.50;;
49422;SDS011;36998;51.974;20.150;2022-07-29T05:11:14;16.80;;;3.65;;
49422;SDS011;36998;51.974;20.150;2022-07-29T05:13:40;17.75;;;3.58;;
49422;SDS011;36998;51.974;20.150;2022-07-29T05:16:05;14.68;;;4.20;;
49422;SDS011;36998;51.974;20.150;2022-07-29T05:18:33;16.90;;;3.85;;
49422;SDS011;36998;51.974;20.150;2022-07-29T05:20:58;11.95;;;4.18;;
49422;SDS011;36998;51.974;20.150;2022-07-29T05:23:24;20.08;;;4.72;;
49422;SDS011;36998;51.974;20.150;2022-07-29T05:25:49;14.98;;;4.32;;
49422;SDS011;36998;51.974;20.150;2022-07-29T05:28:15;13.35;;;3.85;;
49422;SDS011;36998;51.974;20.150;2022-07-29T05:30:41;11.45;;;3.22;;
49422;SDS011;36998;51.974;20.150;2022-07-29T05:33:06;14.25;;;3.70;;
49422;SDS011;36998;51.974;20.150;2022-07-29T05:35:32;6.68;;;3.13;;
49422;SDS011;36998;51.974;20.150;2022-07-29T05:37:57;21.50;;;3.65;;
49422;SDS011;36998;51.974;20.150;2022-07-29T05:40:23;8.27;;;3.08;;
49422;SDS011;36998;51.974;20.150;2022-07-29T05:42:49;5.57;;;3.08;;
49422;SDS011;36998;51.974;20.150;2022-07-29T05:45:14;12.90;;;3.40;;
49422;SDS011;36998;51.974;20.150;2022-07-29T05:47:40;14.77;;;3.30;;
49422;SDS011;36998;51.974;20.150;2022-07-29T05:50:05;10.18;;;3.00;;
49422;SDS011;36998;51.974;20.150;2022-07-29T05:52:31;11.55;;;3.45;;
49422;SDS011;36998;51.974;20.150;2022-07-29T05:54:58;14.43;;;3.10;;
49422;SDS011;36998;51.974;20.150;2022-07-29T05:57:32;9.52;;;2.67;;
49422;SDS011;36998;51.974;20.150;2022-07-29T05:59:58;10.90;;;3.72;;
49422;SDS011;36998;51.974;20.150;2022-07-29T06:02:24;8.20;;;3.35;;
49422;SDS011;36998;51.974;20.150;2022-07-29T06:04:50;6.90;;;2.80;;
49422;SDS011;36998;51.974;20.150;2022-07-29T06:07:36;12.07;;;2.65;;
49422;SDS011;36998;51.974;20.150;2022-07-29T06:10:01;15.75;;;2.60;;
49422;SDS011;36998;51.974;20.150;2022-07-29T06:12:27;7.00;;;2.33;;
49422;SDS011;36998;51.974;20.150;2022-07-29T06:14:53;12.85;;;3.00;;
49422;SDS011;36998;51.974;20.150;2022-07-29T06:17:18;10.10;;;3.03;;
49422;SDS011;36998;51.974;20.150;2022-07-29T06:19:44;12.57;;;2.47;;
49422;SDS011;36998;51.974;20.150;2022-07-29T06:22:09;9.18;;;2.50;;
49422;SDS011;36998;51.974;20.150;2022-07-29T06:24:35;9.20;;;2.47;;
49422;SDS011;36998;51.974;20.150;2022-07-29T06:27:02;5.72;;;2.05;;
49422;SDS011;36998;51.974;20.150;2022-07-29T06:29:27;4.80;;;1.92;;
49422;SDS011;36998;51.974;20.150;2022-07-29T06:31:53;7.13;;;2.25;;
49422;SDS011;36998;51.974;20.150;2022-07-29T06:34:20;7.93;;;2.30;;
49422;SDS011;36998;51.974;20.150;2022-07-29T06:36:47;8.13;;;2.58;;
49422;SDS011;36998;51.974;20.150;2022-07-29T06:39:24;11.00;;;2.30;;
49422;SDS011;36998;51.974;20.150;2022-07-29T06:41:49;22.45;;;2.30;;
49422;SDS011;36998;51.974;20.150;2022-07-29T06:44:47;7.00;;;2.00;;
49422;SDS011;36998;51.974;20.150;2022-07-29T06:47:13;6.65;;;1.80;;
49422;SDS011;36998;51.974;20.150;2022-07-29T06:49:39;3.10;;;1.50;;
49422;SDS011;36998;51.974;20.150;2022-07-29T06:52:05;5.47;;;1.90;;
49422;SDS011;36998;51.974;20.150;2022-07-29T06:54:31;3.10;;;1.90;;
49422;SDS011;36998;51.974;20.150;2022-07-29T06:56:56;4.05;;;1.83;;
49422;SDS011;36998;51.974;20.150;2022-07-29T06:59:22;5.75;;;1.70;;
49422;SDS011;36998;51.974;20.150;2022-07-29T07:01:47;10.40;;;1.80;;
49422;SDS011;36998;51.974;20.150;2022-07-29T07:04:16;9.80;;;2.20;;
49422;SDS011;36998;51.974;20.150;2022-07-29T07:06:41;10.95;;;2.55;;
49422;SDS011;36998;51.974;20.150;2022-07-29T07:09:07;8.23;;;2.00;;
49422;SDS011;36998;51.974;20.150;2022-07-29T07:11:32;7.35;;;1.33;;
49422;SDS011;36998;51.974;20.150;2022-07-29T07:13:58;4.75;;;2.00;;
49422;SDS011;36998;51.974;20.150;2022-07-29T07:16:25;3.65;;;1.67;;
49422;SDS011;36998;51.974;20.150;2022-07-29T07:18:51;5.38;;;1.75;;
49422;SDS011;36998;51.974;20.150;2022-07-29T07:21:16;6.82;;;1.60;;
49422;SDS011;36998;51.974;20.150;2022-07-29T07:23:43;3.50;;;1.88;;
49422;SDS011;36998;51.974;20.150;2022-07-29T07:26:09;5.32;;;1.88;;
49422;SDS011;36998;51.974;20.150;2022-07-29T07:28:35;4.78;;;1.80;;
49422;SDS011;36998;51.974;20.150;2022-07-29T07:31:02;4.10;;;1.88;;
49422;SDS011;36998;51.974;20.150;2022-07-29T07:33:29;3.72;;;1.40;;
49422;SDS011;36998;51.974;20.150;2022-07-29T07:35:55;7.53;;;1.48;;
49422;SDS011;36998;51.974;20.150;2022-07-29T07:38:21;5.63;;;1.60;;
49422;SDS011;36998;51.974;20.150;2022-07-29T07:40:46;5.63;;;1.30;;
49422;SDS011;36998;51.974;20.150;2022-07-29T07:43:12;2.53;;;1.40;;
49422;SDS011;36998;51.974;20.150;2022-07-29T07:45:37;7.05;;;1.40;;
49422;SDS011;36998;51.974;20.150;2022-07-29T07:48:05;7.65;;;1.70;;
49422;SDS011;36998;51.974;20.150;2022-07-29T07:50:31;5.57;;;1.27;;
49422;SDS011;36998;51.974;20.150;2022-07-29T07:52:56;5.60;;;1.40;;
49422;SDS011;36998;51.974;20.150;2022-07-29T07:55:24;8.57;;;1.60;;
49422;SDS011;36998;51.974;20.150;2022-07-29T07:57:50;5.65;;;1.40;;
49422;SDS011;36998;51.974;20.150;2022-07-29T08:00:17;4.15;;;1.20;;
49422;SDS011;36998;51.974;20.150;2022-07-29T08:02:44;5.13;;;1.13;;
49422;SDS011;36998;51.974;20.150;2022-07-29T08:05:27;1.35;;;0.98;;
49422;SDS011;36998;51.974;20.150;2022-07-29T08:07:54;3.88;;;1.10;;
49422;SDS011;36998;51.974;20.150;2022-07-29T08:10:20;4.68;;;1.42;;
49422;SDS011;36998;51.974;20.150;2022-07-29T08:13:04;4.30;;;0.90;;
49422;SDS011;36998;51.974;20.150;2022-07-29T08:15:32;3.22;;;1.33;;
49422;SDS011;36998;51.974;20.150;2022-07-29T08:17:57;9.55;;;1.25;;
49422;SDS011;36998;51.974;20.150;2022-07-29T08:20:23;6.93;;;1.50;;
49422;SDS011;36998;51.974;20.150;2022-07-29T08:23:14;3.05;;;1.10;;
49422;SDS011;36998;51.974;20.150;2022-07-29T08:25:40;5.55;;;3.40;;
49422;SDS011;36998;51.974;20.150;2022-07-29T08:28:07;2.85;;;1.63;;
49422;SDS011;36998;51.974;20.150;2022-07-29T08:31:02;3.85;;;1.20;;
49422;SDS011;36998;51.974;20.150;2022-07-29T08:33:32;6.10;;;1.20;;
49422;SDS011;36998;51.974;20.150;2022-07-29T08:35:58;5.78;;;1.40;;
49422;SDS011;36998;51.974;20.150;2022-07-29T08:38:25;5.25;;;1.55;;
49422;SDS011;36998;51.974;20.150;2022-07-29T08:40:55;3.63;;;0.98;;
49422;SDS011;36998;51.974;20.150;2022-07-29T08:43:21;3.33;;;1.08;;
49422;SDS011;36998;51.974;20.150;2022-07-29T08:45:48;5.65;;;1.20;;
49422;SDS011;36998;51.974;20.150;2022-07-29T08:48:16;2.50;;;1.20;;
49422;SDS011;36998;51.974;20.150;2022-07-29T08:50:43;3.10;;;1.00;;
49422;SDS011;36998;51.974;20.150;2022-07-29T08:53:11;1.63;;;0.80;;
49422;SDS011;36998;51.974;20.150;2022-07-29T08:55:44;8.10;;;1.30;;
49422;SDS011;36998;51.974;20.150;2022-07-29T08:58:11;5.68;;;1.77;;
49422;SDS011;36998;51.974;20.150;2022-07-29T09:00:40;6.22;;;1.92;;
49422;SDS011;36998;51.974;20.150;2022-07-29T09:03:08;4.22;;;1.45;;
49422;SDS011;36998;51.974;20.150;2022-07-29T09:05:37;9.73;;;1.30;;
49422;SDS011;36998;51.974;20.150;2022-07-29T09:08:06;4.68;;;1.13;;
49422;SDS011;36998;51.974;20.150;2022-07-29T09:10:32;3.58;;;1.23;;
49422;SDS011;36998;51.974;20.150;2022-07-29T09:12:58;5.10;;;1.08;;
49422;SDS011;36998;51.974;20.150;2022-07-29T09:15:24;2.83;;;0.95;;
49422;SDS011;36998;51.974;20.150;2022-07-29T09:17:50;3.83;;;1.05;;
49422;SDS011;36998;51.974;20.150;2022-07-29T09:20:17;6.60;;;0.88;;
49422;SDS011;36998;51.974;20.150;2022-07-29T09:22:47;4.35;;;1.02;;
49422;SDS011;36998;51.974;20.150;2022-07-29T09:25:35;3.15;;;1.00;;
49422;SDS011;36998;51.974;20.150;2022-07-29T09:28:05;9.52;;;1.77;;
49422;SDS011;36998;51.974;20.150;2022-07-29T09:30:49;7.47;;;1.20;;
49422;SDS011;36998;51.974;20.150;2022-07-29T09:33:17;6.55;;;1.00;;
49422;SDS011;36998;51.974;20.150;2022-07-29T09:35:43;6.85;;;1.23;;
49422;SDS011;36998;51.974;20.150;2022-07-29T09:38:56;2.45;;;0.90;;
49422;SDS011;36998;51.974;20.150;2022-07-29T09:41:27;12.13;;;1.20;;
49422;SDS011;36998;51.974;20.150;2022-07-29T09:43:53;2.47;;;0.98;;
49422;SDS011;36998;51.974;20.150;2022-07-29T09:51:43;3.83;;;0.90;;
49422;SDS011;36998;51.974;20.150;2022-07-29T09:54:27;3.70;;;0.85;;
49422;SDS011;36998;51.974;20.150;2022-07-29T09:56:53;2.45;;;0.75;;
49422;SDS011;36998;51.974;20.150;2022-07-29T09:59:20;7.95;;;1.00;;
49422;SDS011;36998;51.974;20.150;2022-07-29T10:01:49;7.10;;;1.02;;
49422;SDS011;36998;51.974;20.150;2022-07-29T10:04:15;4.15;;;1.00;;
49422;SDS011;36998;51.974;20.150;2022-07-29T10:07:00;3.35;;;1.50;;
49422;SDS011;36998;51.974;20.150;2022-07-29T10:09:29;4.25;;;1.00;;
49422;SDS011;36998;51.974;20.150;2022-07-29T10:14:38;2.78;;;0.80;;
49422;SDS011;36998;51.974;20.150;2022-07-29T10:17:05;5.03;;;1.30;;
49422;SDS011;36998;51.974;20.150;2022-07-29T10:19:32;4.60;;;2.10;;
49422;SDS011;36998;51.974;20.150;2022-07-29T10:21:58;4.63;;;0.75;;
49422;SDS011;36998;51.974;20.150;2022-07-29T10:24:26;4.53;;;1.20;;
49422;SDS011;36998;51.974;20.150;2022-07-29T10:26:53;3.60;;;1.10;;
49422;SDS011;36998;51.974;20.150;2022-07-29T10:29:21;3.83;;;1.00;;
49422;SDS011;36998;51.974;20.150;2022-07-29T10:31:52;2.50;;;0.63;;
49422;SDS011;36998;51.974;20.150;2022-07-29T10:34:36;2.63;;;1.00;;
49422;SDS011;36998;51.974;20.150;2022-07-29T10:37:16;7.23;;;1.00;;
49422;SDS011;36998;51.974;20.150;2022-07-29T10:39:53;3.22;;;0.93;;
49422;SDS011;36998;51.974;20.150;2022-07-29T10:42:48;2.35;;;0.80;;
49422;SDS011;36998;51.974;20.150;2022-07-29T10:45:16;8.90;;;0.90;;
49422;SDS011;36998;51.974;20.150;2022-07-29T10:47:42;6.35;;;1.02;;
49422;SDS011;36998;51.974;20.150;2022-07-29T10:50:08;5.55;;;1.30;;
49422;SDS011;36998;51.974;20.150;2022-07-29T10:52:51;4.55;;;1.00;;
49422;SDS011;36998;51.974;20.150;2022-07-29T10:58:11;3.92;;;1.15;;
49422;SDS011;36998;51.974;20.150;2022-07-29T11:01:28;4.05;;;0.90;;
49422;SDS011;36998;51.974;20.150;2022-07-29T11:03:55;3.78;;;1.10;;
49422;SDS011;36998;51.974;20.150;2022-07-29T11:06:21;2.55;;;1.05;;
49422;SDS011;36998;51.974;20.150;2022-07-29T11:08:47;10.70;;;0.65;;
49422;SDS011;36998;51.974;20.150;2022-07-29T11:11:46;6.13;;;0.70;;
49422;SDS011;36998;51.974;20.150;2022-07-29T11:14:11;6.05;;;0.90;;
49422;SDS011;36998;51.974;20.150;2022-07-29T11:19:27;2.80;;;0.90;;
49422;SDS011;36998;51.974;20.150;2022-07-29T11:21:53;7.15;;;0.90;;
49422;SDS011;36998;51.974;20.150;2022-07-29T11:24:20;2.85;;;1.00;;
49422;SDS011;36998;51.974;20.150;2022-07-29T11:32:19;2.67;;;1.05;;
49422;SDS011;36998;51.974;20.150;2022-07-29T11:34:47;4.97;;;1.00;;
49422;SDS011;36998;51.974;20.150;2022-07-29T11:37:14;3.35;;;0.93;;
49422;SDS011;36998;51.974;20.150;2022-07-29T11:47:23;14.48;;;0.90;;
49422;SDS011;36998;51.974;20.150;2022-07-29T11:49:50;4.20;;;0.73;;
49422;SDS011;36998;51.974;20.150;2022-07-29T11:52:17;6.68;;;0.90;;
49422;SDS011;36998;51.974;20.150;2022-07-29T11:54:44;3.78;;;1.15;;
49422;SDS011;36998;51.974;20.150;2022-07-29T11:57:14;3.33;;;0.80;;
49422;SDS011;36998;51.974;20.150;2022-07-29T11:59:42;3.67;;;1.27;;
49422;SDS011;36998;51.974;20.150;2022-07-29T12:02:12;3.83;;;1.08;;
49422;SDS011;36998;51.974;20.150;2022-07-29T12:04:53;2.60;;;0.90;;
49422;SDS011;36998;51.974;20.150;2022-07-29T12:07:28;1.02;;;0.60;;
49422;SDS011;36998;51.974;20.150;2022-07-29T12:09:54;9.13;;;1.10;;
49422;SDS011;36998;51.974;20.150;2022-07-29T12:12:20;7.57;;;1.05;;
49422;SDS011;36998;51.974;20.150;2022-07-29T12:14:46;4.70;;;1.35;;
49422;SDS011;36998;51.974;20.150;2022-07-29T12:17:25;5.93;;;1.00;;
49422;SDS011;36998;51.974;20.150;2022-07-29T12:19:53;3.05;;;1.08;;
49422;SDS011;36998;51.974;20.150;2022-07-29T12:22:27;2.60;;;0.80;;
49422;SDS011;36998;51.974;20.150;2022-07-29T12:25:18;4.35;;;1.15;;
49422;SDS011;36998;51.974;20.150;2022-07-29T12:27:46;2.33;;;0.98;;
49422;SDS011;36998;51.974;20.150;2022-07-29T12:30:14;5.10;;;0.90;;
49422;SDS011;36998;51.974;20.150;2022-07-29T12:32:42;4.72;;;1.00;;
49422;SDS011;36998;51.974;20.150;2022-07-29T12:35:10;4.50;;;1.10;;
49422;SDS011;36998;51.974;20.150;2022-07-29T12:37:39;1.90;;;0.88;;
49422;SDS011;36998;51.974;20.150;2022-07-29T12:40:06;7.07;;;1.10;;
49422;SDS011;36998;51.974;20.150;2022-07-29T12:42:33;8.27;;;1.20;;
49422;SDS011;36998;51.974;20.150;2022-07-29T12:44:59;4.05;;;1.17;;
49422;SDS011;36998;51.974;20.150;2022-07-29T12:47:25;3.03;;;0.80;;
49422;SDS011;36998;51.974;20.150;2022-07-29T12:49:52;9.68;;;1.08;;
49422;SDS011;36998;51.974;20.150;2022-07-29T12:52:34;5.90;;;1.10;;
49422;SDS011;36998;51.974;20.150;2022-07-29T12:55:01;4.03;;;1.10;;
49422;SDS011;36998;51.974;20.150;2022-07-29T12:57:27;3.22;;;1.02;;
49422;SDS011;36998;51.974;20.150;2022-07-29T13:00:06;3.78;;;1.20;;
49422;SDS011;36998;51.974;20.150;2022-07-29T13:02:36;6.32;;;1.17;;
49422;SDS011;36998;51.974;20.150;2022-07-29T13:05:03;2.78;;;0.75;;
49422;SDS011;36998;51.974;20.150;2022-07-29T13:07:30;5.25;;;1.35;;
49422;SDS011;36998;51.974;20.150;2022-07-29T13:15:31;1.42;;;1.05;;
49422;SDS011;36998;51.974;20.150;2022-07-29T13:18:28;3.97;;;1.13;;
49422;SDS011;36998;51.974;20.150;2022-07-29T13:21:11;3.03;;;0.90;;
49422;SDS011;36998;51.974;20.150;2022-07-29T13:23:41;4.80;;;1.02;;
49422;SDS011;36998;51.974;20.150;2022-07-29T13:26:08;3.45;;;1.05;;
49422;SDS011;36998;51.974;20.150;2022-07-29T13:28:34;5.75;;;1.25;;
49422;SDS011;36998;51.974;20.150;2022-07-29T13:31:03;1.90;;;1.15;;
49422;SDS011;36998;51.974;20.150;2022-07-29T13:33:29;2.45;;;0.90;;
49422;SDS011;36998;51.974;20.150;2022-07-29T13:35:58;7.45;;;1.10;;
49422;SDS011;36998;51.974;20.150;2022-07-29T13:38:23;4.85;;;0.95;;
49422;SDS011;36998;51.974;20.150;2022-07-29T13:40:49;5.93;;;0.80;;
49422;SDS011;36998;51.974;20.150;2022-07-29T13:43:14;4.30;;;0.80;;
49422;SDS011;36998;51.974;20.150;2022-07-29T13:45:42;3.40;;;0.93;;
49422;SDS011;36998;51.974;20.150;2022-07-29T13:48:08;6.32;;;1.23;;
49422;SDS011;36998;51.974;20.150;2022-07-29T13:50:34;7.78;;;1.00;;
49422;SDS011;36998;51.974;20.150;2022-07-29T13:52:59;1.45;;;0.98;;
49422;SDS011;36998;51.974;20.150;2022-07-29T13:55:25;5.63;;;1.40;;
49422;SDS011;36998;51.974;20.150;2022-07-29T13:57:53;3.60;;;1.30;;
49422;SDS011;36998;51.974;20.150;2022-07-29T14:00:18;3.17;;;1.08;;
49422;SDS011;36998;51.974;20.150;2022-07-29T14:02:44;5.90;;;1.10;;
49422;SDS011;36998;51.974;20.150;2022-07-29T14:05:10;3.78;;;1.13;;
49422;SDS011;36998;51.974;20.150;2022-07-29T14:07:36;4.35;;;0.98;;
49422;SDS011;36998;51.974;20.150;2022-07-29T14:10:05;6.45;;;1.08;;
49422;SDS011;36998;51.974;20.150;2022-07-29T14:12:31;4.35;;;1.08;;
49422;SDS011;36998;51.974;20.150;2022-07-29T14:15:17;12.18;;;1.33;;
49422;SDS011;36998;51.974;20.150;2022-07-29T14:17:42;4.70;;;1.45;;
49422;SDS011;36998;51.974;20.150;2022-07-29T14:20:37;3.83;;;1.10;;
49422;SDS011;36998;51.974;20.150;2022-07-29T14:23:02;3.67;;;1.30;;
49422;SDS011;36998;51.974;20.150;2022-07-29T14:25:28;5.38;;;1.17;;
49422;SDS011;36998;51.974;20.150;2022-07-29T14:27:53;7.00;;;1.27;;
49422;SDS011;36998;51.974;20.150;2022-07-29T14:30:19;4.40;;;1.10;;
49422;SDS011;36998;51.974;20.150;2022-07-29T14:33:08;7.00;;;1.38;;
49422;SDS011;36998;51.974;20.150;2022-07-29T14:35:33;11.15;;;1.40;;
49422;SDS011;36998;51.974;20.150;2022-07-29T14:37:59;3.22;;;1.17;;
49422;SDS011;36998;51.974;20.150;2022-07-29T14:40:28;3.03;;;1.17;;
49422;SDS011;36998;51.974;20.150;2022-07-29T14:42:59;1.23;;;0.90;;
49422;SDS011;36998;51.974;20.150;2022-07-29T14:45:25;3.58;;;1.35;;
49422;SDS011;36998;51.974;20.150;2022-07-29T14:47:50;5.57;;;1.15;;
49422;SDS011;36998;51.974;20.150;2022-07-29T14:50:16;5.47;;;1.17;;
49422;SDS011;36998;51.974;20.150;2022-07-29T14:52:42;4.28;;;1.10;;
49422;SDS011;36998;51.974;20.150;2022-07-29T14:55:08;3.58;;;1.08;;
49422;SDS011;36998;51.974;20.150;2022-07-29T14:57:34;3.13;;;0.88;;
49422;SDS011;36998;51.974;20.150;2022-07-29T14:59:59;4.72;;;1.05;;
49422;SDS011;36998;51.974;20.150;2022-07-29T15:02:25;1.10;;;0.90;;
49422;SDS011;36998;51.974;20.150;2022-07-29T15:04:51;4.90;;;0.77;;
49422;SDS011;36998;51.974;20.150;2022-07-29T15:07:16;7.47;;;1.02;;
49422;SDS011;36998;51.974;20.150;2022-07-29T15:09:42;2.33;;;1.05;;
49422;SDS011;36998;51.974;20.150;2022-07-29T15:12:10;5.45;;;1.35;;
49422;SDS011;36998;51.974;20.150;2022-07-29T15:14:42;2.38;;;0.80;;
49422;SDS011;36998;51.974;20.150;2022-07-29T15:17:07;4.93;;;1.30;;
49422;SDS011;36998;51.974;20.150;2022-07-29T15:19:53;1.85;;;0.88;;
49422;SDS011;36998;51.974;20.150;2022-07-29T15:22:28;4.85;;;1.10;;